createdAt,value
2018-10-17T00:00:52.157Z,99.99
2018-10-17T00:01:52.125Z,99.99
2018-10-17T00:02:52.109Z,99.99
2018-10-17T00:03:52.103Z,99.99
2018-10-17T00:04:52.079Z,99.99
2018-10-17T00:05:52.053Z,99.99
2018-10-17T00:06:52.050Z,99.99
2018-10-17T00:07:52.025Z,99.99
2018-10-17T00:08:52.002Z,99.99
2018-10-17T00:09:51.994Z,99.99
2018-10-17T00:10:51.987Z,99.99
2018-10-17T00:11:51.950Z,99.99
2018-10-17T00:12:51.995Z,99.99
2018-10-17T00:13:51.920Z,99.99
2018-10-17T00:14:51.899Z,99.99
2018-10-17T00:15:51.929Z,99.99
2018-10-17T00:16:51.915Z,99.99
2018-10-17T00:17:51.849Z,99.99
2018-10-17T00:18:51.843Z,99.99
2018-10-17T00:19:51.813Z,99.99
2018-10-17T00:20:51.791Z,99.99
2018-10-17T00:21:51.781Z,99.99
2018-10-17T00:22:51.794Z,99.99
2018-10-17T00:23:51.741Z,99.99
2018-10-17T00:24:51.778Z,99.99
2018-10-17T00:25:51.706Z,99.99
2018-10-17T00:26:51.687Z,99.99
2018-10-17T00:27:51.683Z,99.99
2018-10-17T00:28:51.693Z,99.99
2018-10-17T00:29:51.647Z,99.99
2018-10-17T00:30:51.626Z,99.99
2018-10-17T00:31:51.601Z,99.99
2018-10-17T00:32:51.581Z,99.99
2018-10-17T00:33:51.568Z,99.99
2018-10-17T00:34:51.550Z,99.99
2018-10-17T00:35:51.528Z,99.99
2018-10-17T00:36:51.562Z,99.99
2018-10-17T00:37:51.499Z,99.99
2018-10-17T00:38:51.476Z,99.99
2018-10-17T00:39:51.461Z,99.99
2018-10-17T00:40:51.446Z,99.99
2018-10-17T00:41:51.426Z,99.99
2018-10-17T00:42:51.419Z,99.99
2018-10-17T00:43:51.390Z,99.99
2018-10-17T00:44:51.371Z,99.99
2018-10-17T00:45:51.354Z,99.99
2018-10-17T00:46:51.347Z,99.99
2018-10-17T00:47:51.322Z,99.99
2018-10-17T00:48:51.348Z,99.99
2018-10-17T00:49:51.285Z,99.99
2018-10-17T00:50:51.275Z,99.99
2018-10-17T00:51:51.249Z,99.99
2018-10-17T00:52:51.234Z,99.99
2018-10-17T00:53:51.216Z,99.99
2018-10-17T00:54:51.255Z,99.99
2018-10-17T00:55:51.180Z,99.99
2018-10-17T00:56:51.163Z,99.99
2018-10-17T00:57:51.155Z,99.99
2018-10-17T00:58:51.164Z,99.99
2018-10-17T00:59:51.112Z,99.99
2018-10-17T01:00:51.149Z,99.99
2018-10-17T01:01:51.086Z,99.99
2018-10-17T01:02:51.058Z,99.99
2018-10-17T01:03:51.042Z,99.99
2018-10-17T01:04:51.032Z,99.99
2018-10-17T01:05:51.008Z,99.99
2018-10-17T01:06:51.041Z,99.99
2018-10-17T01:07:50.971Z,99.99
2018-10-17T01:08:50.956Z,99.99
2018-10-17T01:09:50.934Z,99.99
2018-10-17T01:10:50.957Z,99.99
2018-10-17T01:11:50.925Z,99.99
2018-10-17T01:12:50.887Z,99.99
2018-10-17T01:13:50.866Z,99.99
2018-10-17T01:14:50.847Z,99.99
2018-10-17T01:15:50.831Z,99.99
2018-10-17T01:16:50.813Z,99.99
2018-10-17T01:17:50.793Z,99.99
2018-10-17T01:18:50.781Z,99.99
2018-10-17T01:19:50.757Z,99.99
2018-10-17T01:20:50.741Z,99.99
2018-10-17T01:21:50.724Z,99.99
2018-10-17T01:22:50.713Z,99.99
2018-10-17T01:23:50.688Z,99.99
2018-10-17T01:24:50.706Z,99.99
2018-10-17T01:25:50.654Z,99.99
2018-10-17T01:26:50.647Z,99.99
2018-10-17T01:27:50.624Z,99.99
2018-10-17T01:28:50.647Z,99.99
2018-10-17T01:30:23.794Z,99.99
2018-10-17T01:30:50.624Z,99.99
2018-10-17T01:31:50.552Z,99.99
2018-10-17T01:32:50.553Z,99.99
2018-10-17T01:33:50.515Z,99.99
2018-10-17T01:34:50.494Z,99.99
2018-10-17T01:35:50.476Z,99.99
2018-10-17T01:36:50.457Z,99.99
2018-10-17T01:37:50.439Z,99.99
2018-10-17T01:38:50.431Z,99.99
2018-10-17T01:39:50.404Z,99.99
2018-10-17T01:40:50.387Z,99.99
2018-10-17T01:41:50.380Z,99.99
2018-10-17T01:42:50.351Z,99.99
2018-10-17T01:43:50.337Z,99.99
2018-10-17T01:44:50.315Z,99.99
2018-10-17T01:45:50.300Z,99.99
2018-10-17T01:46:50.281Z,99.99
2018-10-17T01:47:50.313Z,99.99
2018-10-17T01:48:50.246Z,99.99
2018-10-17T01:49:50.227Z,99.99
2018-10-17T01:50:50.212Z,99.99
2018-10-17T01:51:50.190Z,99.99
2018-10-17T01:52:50.173Z,99.99
2018-10-17T01:53:50.155Z,99.99
2018-10-17T01:54:50.141Z,99.99
2018-10-17T01:55:50.121Z,99.99
2018-10-17T01:56:50.101Z,99.99
2018-10-17T01:57:50.083Z,99.99
2018-10-17T01:58:50.072Z,99.99
2018-10-17T01:59:50.047Z,99.99
2018-10-17T02:00:50.029Z,99.99
2018-10-17T02:01:50.015Z,99.99
2018-10-17T02:02:49.997Z,99.99
2018-10-17T02:03:49.975Z,99.99
2018-10-17T02:04:49.959Z,99.99
2018-10-17T02:05:49.942Z,99.99
2018-10-17T02:06:49.920Z,99.99
2018-10-17T02:07:49.913Z,99.99
2018-10-17T02:08:49.887Z,99.99
2018-10-17T02:09:49.878Z,99.99
2018-10-17T02:10:49.859Z,99.99
2018-10-17T02:11:49.832Z,99.99
2018-10-17T02:12:49.821Z,99.99
2018-10-17T02:13:49.796Z,99.99
2018-10-17T02:14:49.779Z,99.99
2018-10-17T02:15:49.766Z,99.99
2018-10-17T02:16:49.751Z,99.99
2018-10-17T02:17:49.725Z,99.99
2018-10-17T02:18:49.711Z,99.99
2018-10-17T02:19:49.690Z,99.99
2018-10-17T02:20:49.678Z,99.99
2018-10-17T02:21:49.655Z,99.99
2018-10-17T02:22:49.635Z,99.99
2018-10-17T02:23:49.617Z,99.99
2018-10-17T02:24:49.598Z,99.99
2018-10-17T02:25:49.620Z,99.99
2018-10-17T02:26:49.570Z,99.99
2018-10-17T02:27:49.544Z,99.99
2018-10-17T02:28:49.527Z,99.99
2018-10-17T02:29:49.521Z,99.99
2018-10-17T02:30:49.494Z,99.99
2018-10-17T02:31:49.521Z,99.99
2018-10-17T02:32:49.455Z,99.99
2018-10-17T02:33:49.443Z,99.99
2018-10-17T02:34:49.420Z,99.99
2018-10-17T02:35:49.414Z,99.99
2018-10-17T02:36:49.633Z,99.99
2018-10-17T02:37:49.365Z,99.99
2018-10-17T02:38:49.349Z,99.99
2018-10-17T02:39:49.507Z,99.99
2018-10-17T02:40:49.316Z,99.99
2018-10-17T02:41:49.293Z,99.99
2018-10-17T02:42:49.274Z,99.99
2018-10-17T02:43:49.258Z,99.99
2018-10-17T02:44:49.236Z,99.99
2018-10-17T02:45:49.220Z,99.99
2018-10-17T02:46:49.203Z,99.99
2018-10-17T02:47:49.190Z,99.99
2018-10-17T02:48:49.167Z,99.99
2018-10-17T02:49:49.146Z,99.99
2018-10-17T02:50:49.131Z,99.99
2018-10-17T02:51:49.112Z,99.99
2018-10-17T02:52:49.106Z,99.99
2018-10-17T02:53:49.076Z,99.99
2018-10-17T02:54:49.060Z,99.99
2018-10-17T02:55:49.086Z,99.99
2018-10-17T02:56:49.023Z,99.99
2018-10-17T02:57:49.009Z,99.99
2018-10-17T02:58:49.107Z,99.99
2018-10-17T02:59:48.975Z,99.99
2018-10-17T03:00:48.952Z,99.99
2018-10-17T03:01:48.940Z,99.99
2018-10-17T03:02:48.911Z,99.99
2018-10-17T03:03:48.894Z,99.99
2018-10-17T03:04:48.878Z,99.99
2018-10-17T03:05:48.868Z,99.99
2018-10-17T03:06:48.839Z,99.99
2018-10-17T03:07:48.829Z,99.99
2018-10-17T03:08:48.807Z,99.99
2018-10-17T03:09:48.787Z,99.99
2018-10-17T03:10:48.769Z,99.99
2018-10-17T03:11:48.770Z,99.99
2018-10-17T03:12:48.731Z,99.99
2018-10-17T03:13:48.716Z,99.99
2018-10-17T03:14:48.788Z,99.99
2018-10-17T03:15:48.676Z,99.99
2018-10-17T03:16:48.667Z,99.99
2018-10-17T03:17:48.691Z,99.99
2018-10-17T03:18:48.621Z,99.99
2018-10-17T03:19:48.606Z,99.99
2018-10-17T03:20:48.589Z,99.99
2018-10-17T03:21:48.569Z,99.99
2018-10-17T03:22:48.553Z,99.99
2018-10-17T03:23:48.548Z,99.99
2018-10-17T03:24:48.515Z,99.99
2018-10-17T03:25:48.630Z,99.99
2018-10-17T03:26:48.483Z,99.99
2018-10-17T03:27:48.554Z,99.99
2018-10-17T03:28:48.498Z,99.99
2018-10-17T03:29:48.422Z,99.99
2018-10-17T03:30:48.405Z,99.99
2018-10-17T03:31:48.384Z,99.99
2018-10-17T03:32:48.368Z,99.99
2018-10-17T03:33:48.350Z,99.99
2018-10-17T03:34:48.329Z,99.99
2018-10-17T03:35:48.338Z,99.99
2018-10-17T03:36:48.292Z,99.99
2018-10-17T03:37:48.276Z,99.99
2018-10-17T03:38:48.258Z,99.99
2018-10-17T03:39:48.239Z,99.99
2018-10-17T03:40:48.221Z,99.99
2018-10-17T03:41:48.209Z,99.99
2018-10-17T03:42:48.183Z,99.99
2018-10-17T03:43:48.167Z,99.99
2018-10-17T03:44:48.212Z,99.99
2018-10-17T03:45:48.129Z,99.99
2018-10-17T03:46:48.116Z,99.99
2018-10-17T03:47:48.215Z,99.99
2018-10-17T03:48:48.082Z,99.99
2018-10-17T03:49:48.070Z,99.99
2018-10-17T03:50:48.048Z,99.99
2018-10-17T03:51:48.019Z,99.99
2018-10-17T03:52:48.002Z,99.99
2018-10-17T03:53:47.984Z,99.99
2018-10-17T03:54:47.972Z,99.99
2018-10-17T03:55:47.951Z,99.99
2018-10-17T03:56:47.926Z,99.99
2018-10-17T03:57:47.920Z,99.99
2018-10-17T03:58:47.892Z,99.99
2018-10-17T03:59:47.917Z,99.99
2018-10-17T04:00:47.852Z,99.99
2018-10-17T04:01:47.836Z,99.99
2018-10-17T04:02:47.858Z,99.99
2018-10-17T04:03:47.797Z,99.99
2018-10-17T04:04:47.790Z,99.99
2018-10-17T04:05:47.762Z,99.99
2018-10-17T04:06:47.837Z,99.99
2018-10-17T04:07:47.725Z,99.99
2018-10-17T04:08:47.717Z,99.99
2018-10-17T04:09:47.688Z,99.99
2018-10-17T04:10:47.671Z,99.99
2018-10-17T04:11:47.651Z,99.99
2018-10-17T04:12:47.631Z,99.99
2018-10-17T04:13:47.622Z,99.99
2018-10-17T04:14:47.732Z,99.99
2018-10-17T04:15:47.575Z,99.99
2018-10-17T04:16:47.559Z,99.99
2018-10-17T04:17:47.541Z,99.99
2018-10-17T04:18:47.521Z,99.99
2018-10-17T04:19:47.504Z,99.99
2018-10-17T04:20:47.591Z,99.99
2018-10-17T04:21:47.467Z,99.99
2018-10-17T04:22:47.572Z,99.99
2018-10-17T04:23:47.430Z,99.99
2018-10-17T04:24:47.419Z,99.99
2018-10-17T04:25:47.394Z,99.99
2018-10-17T04:26:47.372Z,99.99
2018-10-17T04:27:47.355Z,99.99
2018-10-17T04:28:47.339Z,99.99
2018-10-17T04:29:47.320Z,99.99
2018-10-17T04:30:47.302Z,99.99
2018-10-17T04:31:47.282Z,99.99
2018-10-17T04:32:47.265Z,99.99
2018-10-17T04:33:47.343Z,99.99
2018-10-17T04:34:47.224Z,99.99
2018-10-17T04:35:47.211Z,99.99
2018-10-17T04:36:47.225Z,99.99
2018-10-17T04:37:47.170Z,99.99
2018-10-17T04:38:47.151Z,99.99
2018-10-17T04:39:47.133Z,99.99
2018-10-17T04:40:47.114Z,99.99
2018-10-17T04:41:47.119Z,99.99
2018-10-17T04:42:47.076Z,99.99
2018-10-17T04:43:47.060Z,99.99
2018-10-17T04:44:47.046Z,99.99
2018-10-17T04:45:47.026Z,99.99
2018-10-17T04:46:47.001Z,99.99
2018-10-17T04:47:47.104Z,99.99
2018-10-17T04:48:46.966Z,99.99
2018-10-17T04:49:46.964Z,99.99
2018-10-17T04:50:46.927Z,99.99
2018-10-17T04:51:46.907Z,99.99
2018-10-17T04:52:46.895Z,99.99
2018-10-17T04:53:46.870Z,99.99
2018-10-17T04:54:46.854Z,99.99
2018-10-17T04:55:46.838Z,99.99
2018-10-17T04:56:46.822Z,99.99
2018-10-17T04:57:46.807Z,99.99
2018-10-17T04:58:46.780Z,99.99
2018-10-17T04:59:46.759Z,99.99
2018-10-17T05:00:46.741Z,99.99
2018-10-17T05:01:46.731Z,99.99
2018-10-17T05:02:46.708Z,99.99
2018-10-17T05:03:46.685Z,99.99
2018-10-17T05:04:46.669Z,99.99
2018-10-17T05:05:46.662Z,99.99
2018-10-17T05:06:46.667Z,99.99
2018-10-17T05:07:46.610Z,99.99
2018-10-17T05:08:46.591Z,99.99
2018-10-17T05:09:46.579Z,99.99
2018-10-17T05:10:46.578Z,99.99
2018-10-17T05:11:46.535Z,99.99
2018-10-17T05:12:46.519Z,99.99
2018-10-17T05:13:46.508Z,99.99
2018-10-17T05:14:46.481Z,99.99
2018-10-17T05:15:46.469Z,99.99
2018-10-17T05:16:46.443Z,99.99
2018-10-17T05:17:46.424Z,99.99
2018-10-17T05:18:46.408Z,99.99
2018-10-17T05:19:46.394Z,99.99
2018-10-17T05:20:46.369Z,99.99
2018-10-17T05:21:46.351Z,99.99
2018-10-17T05:22:46.338Z,99.99
2018-10-17T05:23:46.317Z,99.99
2018-10-17T05:24:46.302Z,99.99
2018-10-17T05:25:46.309Z,99.99
2018-10-17T05:26:46.259Z,99.99
2018-10-17T05:27:46.240Z,99.99
2018-10-17T05:28:46.230Z,99.99
2018-10-17T05:29:46.306Z,99.99
2018-10-17T05:30:46.191Z,99.99
2018-10-17T05:31:46.165Z,99.99
2018-10-17T05:32:46.152Z,99.99
2018-10-17T05:33:46.135Z,99.99
2018-10-17T05:34:46.116Z,99.99
2018-10-17T05:35:46.090Z,99.99
2018-10-17T05:36:46.074Z,99.99
2018-10-17T05:37:46.220Z,99.99
2018-10-17T05:38:46.042Z,99.99
2018-10-17T05:39:46.029Z,99.99
2018-10-17T05:40:46.008Z,99.99
2018-10-17T05:41:45.978Z,99.99
2018-10-17T05:42:45.975Z,99.99
2018-10-17T05:43:45.942Z,99.99
2018-10-17T05:44:45.926Z,99.99
2018-10-17T05:45:45.907Z,99.99
2018-10-17T05:46:45.889Z,99.99
2018-10-17T05:47:45.867Z,99.99
2018-10-17T05:48:45.849Z,99.99
2018-10-17T05:49:45.841Z,99.99
2018-10-17T05:50:45.811Z,99.99
2018-10-17T05:51:45.795Z,99.99
2018-10-17T05:52:45.776Z,99.99
2018-10-17T05:53:45.760Z,99.99
2018-10-17T05:54:45.740Z,99.99
2018-10-17T05:55:45.721Z,99.99
2018-10-17T05:56:45.702Z,99.99
2018-10-17T05:57:45.684Z,99.99
2018-10-17T05:58:45.670Z,99.99
2018-10-17T05:59:45.647Z,99.99
2018-10-17T06:00:45.627Z,99.99
2018-10-17T06:01:45.771Z,99.99
2018-10-17T06:02:45.594Z,99.99
2018-10-17T06:03:45.573Z,99.99
2018-10-17T06:04:45.554Z,99.99
2018-10-17T06:05:45.536Z,99.99
2018-10-17T06:06:45.517Z,99.99
2018-10-17T06:07:45.497Z,99.99
2018-10-17T06:08:45.490Z,99.99
2018-10-17T06:09:45.461Z,99.99
2018-10-17T06:10:45.441Z,99.99
2018-10-17T06:11:45.428Z,99.99
2018-10-17T06:12:45.415Z,99.99
2018-10-17T06:13:45.393Z,99.99
2018-10-17T06:14:45.376Z,99.99
2018-10-17T06:15:45.353Z,99.99
2018-10-17T06:16:45.354Z,99.99
2018-10-17T06:17:45.312Z,99.99
2018-10-17T06:18:45.295Z,99.99
2018-10-17T06:19:45.284Z,99.99
2018-10-17T06:20:45.256Z,99.99
2018-10-17T06:21:45.240Z,99.99
2018-10-17T06:22:45.221Z,99.99
2018-10-17T06:23:45.205Z,99.99
2018-10-17T06:24:45.184Z,99.99
2018-10-17T06:25:45.164Z,99.99
2018-10-17T06:26:45.153Z,99.99
2018-10-17T06:27:45.126Z,99.99
2018-10-17T06:28:45.117Z,99.99
2018-10-17T06:29:45.101Z,99.99
2018-10-17T06:30:45.129Z,99.99
2018-10-17T06:31:45.057Z,99.99
2018-10-17T06:32:45.040Z,99.99
2018-10-17T06:33:45.397Z,99.99
2018-10-17T06:34:45.058Z,99.99
2018-10-17T06:35:44.982Z,99.99
2018-10-17T06:36:44.971Z,99.99
2018-10-17T06:37:44.946Z,99.99
2018-10-17T06:38:44.927Z,99.99
2018-10-17T06:39:44.906Z,99.99
2018-10-17T06:40:44.889Z,99.99
2018-10-17T06:41:44.874Z,99.99
2018-10-17T06:42:44.860Z,99.99
2018-10-17T06:43:44.916Z,99.99
2018-10-17T06:44:44.815Z,99.99
2018-10-17T06:45:44.800Z,99.99
2018-10-17T06:46:44.782Z,99.99
2018-10-17T06:47:44.759Z,99.99
2018-10-17T06:48:44.756Z,99.99
2018-10-17T06:49:44.728Z,99.99
2018-10-17T06:50:44.706Z,99.99
2018-10-17T06:51:44.693Z,99.99
2018-10-17T06:52:44.667Z,99.99
2018-10-17T06:53:44.723Z,99.99
2018-10-17T06:54:44.630Z,99.99
2018-10-17T06:55:44.612Z,99.99
2018-10-17T06:56:44.594Z,99.99
2018-10-17T06:57:44.584Z,99.99
2018-10-17T06:58:44.558Z,99.99
2018-10-17T06:59:44.541Z,99.99
2018-10-17T07:00:44.525Z,99.99
2018-10-17T07:01:44.666Z,99.99
2018-10-17T07:02:44.483Z,99.99
2018-10-17T07:03:44.537Z,99.99
2018-10-17T07:04:44.447Z,99.99
2018-10-17T07:05:44.438Z,99.99
2018-10-17T07:06:44.416Z,99.99
2018-10-17T07:07:44.390Z,99.99
2018-10-17T07:08:44.390Z,99.99
2018-10-17T07:09:44.355Z,99.99
2018-10-17T07:10:44.340Z,99.99
2018-10-17T07:11:44.319Z,99.99
2018-10-17T07:12:44.302Z,99.99
2018-10-17T07:13:44.284Z,99.99
2018-10-17T07:14:44.263Z,99.99
2018-10-17T07:15:44.364Z,99.99
2018-10-17T07:16:44.229Z,99.99
2018-10-17T07:17:44.208Z,99.99
2018-10-17T07:18:44.191Z,99.99
2018-10-17T07:19:44.179Z,99.99
2018-10-17T07:20:44.155Z,99.99
2018-10-17T07:21:44.138Z,99.99
2018-10-17T07:22:44.133Z,99.99
2018-10-17T07:23:44.103Z,99.99
2018-10-17T07:24:44.084Z,99.99
2018-10-17T07:25:44.065Z,99.99
2018-10-17T07:26:44.050Z,99.99
2018-10-17T07:27:44.031Z,99.99
2018-10-17T07:28:44.056Z,99.99
2018-10-17T07:29:44.161Z,99.99
2018-10-17T07:30:43.977Z,99.99
2018-10-17T07:31:43.957Z,99.99
2018-10-17T07:32:43.947Z,99.99
2018-10-17T07:33:43.921Z,99.99
2018-10-17T07:34:43.904Z,99.99
2018-10-17T07:35:43.921Z,99.99
2018-10-17T07:36:43.869Z,99.99
2018-10-17T07:37:43.856Z,99.99
2018-10-17T07:38:43.836Z,99.99
2018-10-17T07:39:43.823Z,99.99
2018-10-17T07:40:43.805Z,99.99
2018-10-17T07:41:43.790Z,99.99
2018-10-17T07:42:43.766Z,99.99
2018-10-17T07:43:43.748Z,99.99
2018-10-17T07:44:43.728Z,99.99
2018-10-17T07:45:43.840Z,99.99
2018-10-17T07:46:43.695Z,99.99
2018-10-17T07:47:43.675Z,99.99
2018-10-17T07:48:43.666Z,99.99
2018-10-17T07:49:43.839Z,99.99
2018-10-17T07:50:43.620Z,99.99
2018-10-17T07:51:43.602Z,99.99
2018-10-17T07:52:43.593Z,99.99
2018-10-17T07:53:43.585Z,99.99
2018-10-17T07:54:43.551Z,99.99
2018-10-17T07:55:43.535Z,99.99
2018-10-17T07:56:43.517Z,99.99
2018-10-17T07:57:43.499Z,99.99
2018-10-17T07:58:43.493Z,99.99
2018-10-17T07:59:43.532Z,99.99
2018-10-17T08:00:43.446Z,99.99
2018-10-17T08:01:43.429Z,99.99
2018-10-17T08:02:43.415Z,99.63
2018-10-17T08:03:43.414Z,98.91
2018-10-17T08:04:43.387Z,98.33
2018-10-17T08:05:43.362Z,98.24
2018-10-17T08:06:43.442Z,97.66
2018-10-17T08:07:43.329Z,96.89
2018-10-17T08:08:43.312Z,97.09
2018-10-17T08:09:43.299Z,96.13
2018-10-17T08:10:43.274Z,96.13
2018-10-17T08:11:43.266Z,95.26
2018-10-17T08:12:43.245Z,94.59
2018-10-17T08:13:43.228Z,94.12
2018-10-17T08:14:43.209Z,93.54
2018-10-17T08:15:43.198Z,94.45
2018-10-17T08:16:43.219Z,93.97
2018-10-17T08:17:43.159Z,94.17
2018-10-17T08:18:43.140Z,93.97
2018-10-17T08:19:43.124Z,94.26
2018-10-17T08:20:43.108Z,93.88
2018-10-17T08:21:43.091Z,93.40
2018-10-17T08:22:43.074Z,93.01
2018-10-17T08:23:43.064Z,92.82
2018-10-17T08:24:43.041Z,92.24
2018-10-17T08:25:43.043Z,92.91
2018-10-17T08:26:43.006Z,93.21
2018-10-17T08:27:42.992Z,92.24
2018-10-17T08:28:42.974Z,92.44
2018-10-17T08:29:42.965Z,92.34
2018-10-17T08:30:42.941Z,92.05
2018-10-17T08:31:42.927Z,91.86
2018-10-17T08:32:42.908Z,92.48
2018-10-17T08:33:42.892Z,91.81
2018-10-17T08:34:42.882Z,90.85
2018-10-17T08:35:43.035Z,91.24
2018-10-17T08:36:43.038Z,90.56
2018-10-17T08:37:43.216Z,90.37
2018-10-17T08:38:42.879Z,90.66
2018-10-17T08:39:42.790Z,90.18
2018-10-17T08:40:42.777Z,90.37
2018-10-17T08:41:42.760Z,90.56
2018-10-17T08:42:42.754Z,90.52
2018-10-17T08:43:42.726Z,88.98
2018-10-17T08:44:42.707Z,88.02
2018-10-17T08:45:42.712Z,89.55
2018-10-17T08:46:42.675Z,88.40
2018-10-17T08:47:42.662Z,87.49
2018-10-17T08:48:42.657Z,87.39
2018-10-17T08:49:42.641Z,87.58
2018-10-17T08:50:42.765Z,86.24
2018-10-17T08:51:42.597Z,85.85
2018-10-17T08:52:42.585Z,86.05
2018-10-17T08:53:42.568Z,85.28
2018-10-17T08:54:42.555Z,85.89
2018-10-17T08:55:42.541Z,83.49
2018-10-17T08:56:42.518Z,83.25
2018-10-17T08:57:42.573Z,83.34
2018-10-17T08:58:42.487Z,81.99
2018-10-17T08:59:42.483Z,81.42
2018-10-17T09:00:42.463Z,81.13
2018-10-17T09:01:42.438Z,80.50
2018-10-17T09:02:42.433Z,80.40
2018-10-17T09:03:42.408Z,80.69
2018-10-17T09:04:42.393Z,80.40
2018-10-17T09:05:42.383Z,79.92
2018-10-17T09:06:42.390Z,79.10
2018-10-17T09:07:42.485Z,78.81
2018-10-17T09:08:42.329Z,77.84
2018-10-17T09:09:42.317Z,77.36
2018-10-17T09:10:42.300Z,76.69
2018-10-17T09:11:42.295Z,76.34
2018-10-17T09:12:42.272Z,75.28
2018-10-17T09:13:42.259Z,75.48
2018-10-17T09:14:42.247Z,75.09
2018-10-17T09:15:42.242Z,74.65
2018-10-17T09:16:42.238Z,73.68
2018-10-17T09:17:42.198Z,73.01
2018-10-17T09:18:42.190Z,72.53
2018-10-17T09:19:43.160Z,71.60
2018-10-17T09:20:42.465Z,71.70
2018-10-17T09:21:42.570Z,71.60
2018-10-17T09:22:42.262Z,71.22
2018-10-17T09:23:42.117Z,70.92
2018-10-17T09:24:42.147Z,71.02
2018-10-17T09:25:42.207Z,71.41
2018-10-17T09:26:42.071Z,71.98
2018-10-17T09:27:42.062Z,72.18
2018-10-17T09:28:42.045Z,71.79
2018-10-17T09:29:42.034Z,71.31
2018-10-17T09:30:42.087Z,70.57
2018-10-17T09:31:42.017Z,70.00
2018-10-17T09:32:41.985Z,69.26
2018-10-17T09:33:44.592Z,68.23
2018-10-17T09:38:57.263Z,62.79
2018-10-17T09:39:59.895Z,61.15
2018-10-17T09:42:01.111Z,61.33
2018-10-17T09:43:01.080Z,61.53
2018-10-17T09:44:01.019Z,61.05
2018-10-17T09:45:01.006Z,60.59
2018-10-17T09:46:01.062Z,59.91
2018-10-17T09:47:01.028Z,59.17
2018-10-17T09:48:00.992Z,58.88
2018-10-17T09:49:00.954Z,57.75
2018-10-17T09:50:00.946Z,57.45
2018-10-17T09:51:00.925Z,56.71
2018-10-17T09:52:00.956Z,56.61
2018-10-17T09:53:00.932Z,55.87
2018-10-17T09:54:00.964Z,55.96
2018-10-17T09:55:00.921Z,55.41
2018-10-17T09:56:00.867Z,55.11
2018-10-17T09:57:00.852Z,54.17
2018-10-17T09:59:44.780Z,55.28
2018-10-17T10:00:43.558Z,54.80
2018-10-17T10:01:43.557Z,54.90
2018-10-17T10:02:43.526Z,54.70
2018-10-17T10:03:43.513Z,54.72
2018-10-17T10:04:43.515Z,54.07
2018-10-17T10:05:43.494Z,52.42
2018-10-17T10:06:43.479Z,52.81
2018-10-17T10:07:43.482Z,52.91
2018-10-17T10:08:43.462Z,52.03
2018-10-17T10:09:43.443Z,52.23
2018-10-17T10:10:43.442Z,52.23
2018-10-17T10:11:43.423Z,52.11
2018-10-17T10:12:43.409Z,52.69
2018-10-17T10:13:43.398Z,52.98
2018-10-17T10:14:43.391Z,52.78
2018-10-17T10:15:43.379Z,52.42
2018-10-17T10:16:43.371Z,52.13
2018-10-17T10:17:43.433Z,52.01
2018-10-17T10:18:43.345Z,52.78
2018-10-17T10:19:43.335Z,53.30
2018-10-17T10:20:43.331Z,52.91
2018-10-17T10:21:43.322Z,52.88
2018-10-17T10:22:43.329Z,52.62
2018-10-17T10:23:43.602Z,52.23
2018-10-17T10:24:43.377Z,52.42
2018-10-17T10:25:43.276Z,51.97
2018-10-17T10:26:43.264Z,51.28
2018-10-17T10:27:43.263Z,51.87
2018-10-17T10:28:43.323Z,52.03
2018-10-17T10:29:43.276Z,52.23
2018-10-17T10:30:43.225Z,52.15
2018-10-17T10:31:43.218Z,52.13
2018-10-17T10:32:43.212Z,52.25
2018-10-17T10:33:43.200Z,51.28
2018-10-17T10:34:43.194Z,50.63
2018-10-17T10:35:43.176Z,51.16
2018-10-17T10:36:43.165Z,52.23
2018-10-17T10:37:43.179Z,52.03
2018-10-17T10:38:43.146Z,51.26
2018-10-17T10:39:43.136Z,52.28
2018-10-17T10:40:43.242Z,53.15
2018-10-17T10:41:43.118Z,54.11
2018-10-17T10:42:43.107Z,53.63
2018-10-17T10:43:43.100Z,53.47
2018-10-17T10:44:43.088Z,52.78
2018-10-17T10:45:43.083Z,52.88
2018-10-17T10:46:43.074Z,52.76
2018-10-17T10:47:43.059Z,52.78
2018-10-17T10:48:43.058Z,52.59
2018-10-17T10:49:43.041Z,52.88
2018-10-17T10:50:43.031Z,52.98
2018-10-17T10:51:43.121Z,52.23
2018-10-17T10:52:43.043Z,51.55
2018-10-17T10:53:43.005Z,51.38
2018-10-17T10:54:42.991Z,50.73
2018-10-17T10:55:42.992Z,50.31
2018-10-17T10:56:42.981Z,51.48
2018-10-17T10:57:42.977Z,50.99
2018-10-17T10:58:43.036Z,50.92
2018-10-17T10:59:43.026Z,49.95
2018-10-17T11:00:42.941Z,49.49
2018-10-17T11:01:42.927Z,48.61
2018-10-17T11:02:42.920Z,49.10
2018-10-17T11:03:42.906Z,49.39
2018-10-17T11:04:42.935Z,49.44
2018-10-17T11:05:43.078Z,49.73
2018-10-17T11:06:42.875Z,50.77
2018-10-17T11:07:42.862Z,50.48
2018-10-17T11:08:42.861Z,49.82
2018-10-17T11:09:42.859Z,49.63
2018-10-17T11:10:42.835Z,50.77
2018-10-17T11:11:42.828Z,50.58
2018-10-17T11:12:42.815Z,50.94
2018-10-17T11:13:42.810Z,51.26
2018-10-17T11:14:43.004Z,51.33
2018-10-17T11:15:42.784Z,50.96
2018-10-17T11:16:42.778Z,50.68
2018-10-17T11:17:42.767Z,50.12
2018-10-17T11:18:42.754Z,49.85
2018-10-17T11:19:42.749Z,49.82
2018-10-17T11:20:42.742Z,49.56
2018-10-17T11:21:42.755Z,49.17
2018-10-17T11:22:42.713Z,49.37
2018-10-17T11:23:42.722Z,49.37
2018-10-17T11:24:42.697Z,48.80
2018-10-17T11:25:42.692Z,49.46
2018-10-17T11:26:42.678Z,49.73
2018-10-17T11:27:42.670Z,50.02
2018-10-17T11:28:42.658Z,49.63
2018-10-17T11:29:42.645Z,50.38
2018-10-17T11:30:42.666Z,50.68
2018-10-17T11:31:42.667Z,50.53
2018-10-17T11:32:42.624Z,50.72
2018-10-17T11:33:42.611Z,52.18
2018-10-17T11:34:42.598Z,52.25
2018-10-17T11:35:42.601Z,52.18
2018-10-17T11:36:42.575Z,52.54
2018-10-17T11:37:42.634Z,52.86
2018-10-17T11:38:42.555Z,51.98
2018-10-17T11:39:42.544Z,51.98
2018-10-17T11:40:42.718Z,52.64
2018-10-17T11:41:42.541Z,52.73
2018-10-17T11:42:42.510Z,52.73
2018-10-17T11:43:42.505Z,53.34
2018-10-17T11:44:42.499Z,53.53
2018-10-17T11:45:42.488Z,52.78
2018-10-17T11:46:42.483Z,51.91
2018-10-17T11:47:42.538Z,51.62
2018-10-17T11:48:42.460Z,51.72
2018-10-17T11:49:42.438Z,51.62
2018-10-17T11:50:42.426Z,51.62
2018-10-17T11:51:42.428Z,52.28
2018-10-17T11:52:42.404Z,53.31
2018-10-17T11:53:42.398Z,54.28
2018-10-17T11:54:42.397Z,54.19
2018-10-17T11:55:42.378Z,53.80
2018-10-17T11:56:42.365Z,53.31
2018-10-17T11:57:42.364Z,53.67
2018-10-17T11:58:42.337Z,54.52
2018-10-17T11:59:42.448Z,54.81
2018-10-17T12:00:42.333Z,54.71
2018-10-17T12:01:42.339Z,54.62
2018-10-17T12:02:42.295Z,54.52
2018-10-17T12:03:42.525Z,54.52
2018-10-17T12:04:42.424Z,55.36
2018-10-17T12:05:42.371Z,55.56
2018-10-17T12:06:42.250Z,55.66
2018-10-17T12:07:42.240Z,55.76
2018-10-17T12:08:42.229Z,56.14
2018-10-17T12:09:42.238Z,56.21
2018-10-17T12:10:42.211Z,55.63
2018-10-17T12:11:42.271Z,55.92
2018-10-17T12:12:42.185Z,55.82
2018-10-17T12:13:42.174Z,55.82
2018-10-17T12:14:42.169Z,56.43
2018-10-17T12:15:42.148Z,55.73
2018-10-17T12:16:42.142Z,56.02
2018-10-17T12:17:42.181Z,56.70
2018-10-17T12:18:42.125Z,56.88
2018-10-17T12:19:42.166Z,56.79
2018-10-17T12:20:42.101Z,56.79
2018-10-17T12:21:42.093Z,56.52
2018-10-17T12:22:42.083Z,56.70
2018-10-17T12:23:42.060Z,56.40
2018-10-17T12:24:42.049Z,56.88
2018-10-17T12:25:42.041Z,56.79
2018-10-17T12:26:42.025Z,56.76
2018-10-17T12:27:42.017Z,57.34
2018-10-17T12:28:42.066Z,57.54
2018-10-17T12:29:41.995Z,57.34
2018-10-17T12:30:41.993Z,57.92
2018-10-17T12:31:41.972Z,57.73
2018-10-17T12:32:41.977Z,57.24
2018-10-17T12:33:41.955Z,57.63
2018-10-17T12:34:41.947Z,57.44
2018-10-17T12:35:41.924Z,57.46
2018-10-17T12:36:41.940Z,57.44
2018-10-17T12:37:41.914Z,57.44
2018-10-17T12:38:41.901Z,57.15
2018-10-17T12:39:42.015Z,57.18
2018-10-17T12:40:42.025Z,56.98
2018-10-17T12:41:41.955Z,56.60
2018-10-17T12:42:41.845Z,56.88
2018-10-17T12:43:41.840Z,57.54
2018-10-17T12:44:41.836Z,56.76
2018-10-17T12:45:41.888Z,57.46
2018-10-17T12:46:41.806Z,56.98
2018-10-17T12:47:41.788Z,56.86
2018-10-17T12:48:41.808Z,57.15
2018-10-17T12:49:41.822Z,56.95
2018-10-17T12:50:41.758Z,56.86
2018-10-17T12:51:41.745Z,56.57
2018-10-17T12:52:41.834Z,56.95
2018-10-17T12:53:41.807Z,57.05
2018-10-17T12:54:41.710Z,56.95
2018-10-17T12:55:41.848Z,56.57
2018-10-17T12:56:41.686Z,56.67
2018-10-17T12:57:41.675Z,56.67
2018-10-17T12:58:41.664Z,55.73
2018-10-17T12:59:41.652Z,55.82